Time,TemperatureF,DewpointF,PressureIn,WindDirection,WindDirectionDegrees,WindSpeedMPH,WindSpeedGustMPH,Humidity,HourlyPrecipIn,Conditions,Clouds,dailyrainin,SoftwareType,DateUTC
2013-11-15 00:00:00,23.2,21.2,30.09,SSW,199,0.0,0.0,92,0.00,,,0.00,Wunderground v.1.15,2013-11-15 05:00:00,
2013-11-15 00:05:00,23.1,21.1,30.09,SSW,199,0.0,0.0,92,0.00,,,0.00,Wunderground v.1.15,2013-11-15 05:05:00,
2013-11-15 00:10:00,23.2,21.2,30.10,SSW,199,0.0,0.0,92,0.00,,,0.00,Wunderground v.1.15,2013-11-15 05:10:00,
2013-11-15 00:15:00,23.4,21.4,30.10,SSW,199,0.0,0.0,92,0.00,,,0.00,Wunderground v.1.15,2013-11-15 05:15:00,
2013-11-15 00:20:00,23.7,21.7,30.10,SSW,199,0.0,0.0,92,0.00,,,0.00,Wunderground v.1.15,2013-11-15 05:20:00,
2013-11-15 00:26:00,24.0,22.0,30.09,SSW,199,0.0,0.0,92,0.00,,,0.00,Wunderground v.1.15,2013-11-15 05:26:00,
2013-11-15 00:30:00,24.2,22.2,30.10,SSW,199,0.0,0.0,92,0.00,,,0.00,Wunderground v.1.15,2013-11-15 05:30:00,
2013-11-15 00:40:00,25.0,23.3,30.10,SSW,199,0.0,0.0,93,0.00,,,0.00,Wunderground v.1.15,2013-11-15 05:40:00,
2013-11-15 00:45:00,25.4,23.7,30.10,SSW,199,0.0,0.0,93,0.00,,,0.00,Wunderground v.1.15,2013-11-15 05:45:00,
2013-11-15 00:50:00,25.8,23.8,30.10,SSW,199,0.0,0.0,92,0.00,,,0.00,Wunderground v.1.15,2013-11-15 05:50:00,
2013-11-15 00:55:00,26.2,24.2,30.10,SSW,199,0.0,0.0,92,0.00,,,0.00,Wunderground v.1.15,2013-11-15 05:55:00,
2013-11-15 01:00:00,26.7,24.7,30.10,SSW,199,0.0,0.0,92,0.00,,,0.00,Wunderground v.1.15,2013-11-15 06:00:00,
2013-11-15 01:05:00,27.1,25.1,30.10,SSW,199,0.0,0.0,92,0.00,,,0.00,Wunderground v.1.15,2013-11-15 06:05:00,
2013-11-15 01:11:00,27.4,25.4,30.11,SSW,199,0.0,0.0,92,0.00,,,0.00,Wunderground v.1.15,2013-11-15 06:11:00,
2013-11-15 01:21:00,27.8,25.8,30.11,SSW,199,0.0,0.0,92,0.00,,,0.00,Wunderground v.1.15,2013-11-15 06:21:00,
2013-11-15 01:26:00,27.8,25.5,30.11,SSW,199,0.0,0.0,91,0.00,,,0.00,Wunderground v.1.15,2013-11-15 06:26:00,
2013-11-15 01:31:00,27.9,25.6,30.11,SSW,199,0.0,0.0,91,0.00,,,0.00,Wunderground v.1.15,2013-11-15 06:31:00,
2013-11-15 01:36:00,27.8,25.5,30.11,SSW,199,0.0,0.0,91,0.00,,,0.00,Wunderground v.1.15,2013-11-15 06:36:00,
2013-11-15 01:41:00,27.8,25.5,30.11,SSW,199,0.0,0.0,91,0.00,,,0.00,Wunderground v.1.15,2013-11-15 06:41:00,
2013-11-15 01:45:00,27.9,25.3,30.11,SSW,199,0.0,0.0,90,0.00,,,0.00,Wunderground v.1.15,2013-11-15 06:45:00,
2013-11-15 01:50:00,27.5,24.7,30.11,SSW,199,0.0,0.0,89,0.00,,,0.00,Wunderground v.1.15,2013-11-15 06:50:00,
2013-11-15 01:55:00,27.4,24.6,30.11,SSW,199,0.0,0.0,89,0.00,,,0.00,Wunderground v.1.15,2013-11-15 06:55:00,
2013-11-15 02:00:00,27.2,24.4,30.11,SSW,199,0.0,0.0,89,0.00,,,0.00,Wunderground v.1.15,2013-11-15 07:00:00,
2013-11-15 02:05:00,27.1,24.3,30.11,SSW,199,0.0,0.0,89,0.00,,,0.00,Wunderground v.1.15,2013-11-15 07:05:00,
2013-11-15 02:16:00,26.7,23.9,30.11,SSW,199,0.0,0.0,89,0.00,,,0.00,Wunderground v.1.15,2013-11-15 07:16:00,
2013-11-15 02:20:00,26.4,23.6,30.11,SSW,199,0.0,0.0,89,0.00,,,0.00,Wunderground v.1.15,2013-11-15 07:20:00,
2013-11-15 02:50:00,25.3,22.5,30.11,SSW,199,0.0,0.0,89,0.00,,,0.00,Wunderground v.1.15,2013-11-15 07:50:00,
2013-11-15 02:55:00,25.2,22.4,30.12,SSW,199,0.0,0.0,89,0.00,,,0.00,Wunderground v.1.15,2013-11-15 07:55:00,
2013-11-15 03:00:00,24.9,22.1,30.12,SSW,199,0.0,0.0,89,0.00,,,0.00,Wunderground v.1.15,2013-11-15 08:00:00,
2013-11-15 03:05:00,24.9,22.1,30.12,SSW,199,0.0,0.0,89,0.00,,,0.00,Wunderground v.1.15,2013-11-15 08:05:00,
2013-11-15 03:10:00,24.9,22.1,30.11,SSW,199,0.0,0.0,89,0.00,,,0.00,Wunderground v.1.15,2013-11-15 08:10:00,
2013-11-15 03:20:00,24.5,21.7,30.11,SSW,199,0.0,0.0,89,0.00,,,0.00,Wunderground v.1.15,2013-11-15 08:20:00,
2013-11-15 03:25:00,24.5,21.7,30.11,SSW,199,0.0,0.0,89,0.00,,,0.00,Wunderground v.1.15,2013-11-15 08:25:00,
2013-11-15 03:30:00,24.4,21.6,30.11,SSW,199,0.0,0.0,89,0.00,,,0.00,Wunderground v.1.15,2013-11-15 08:30:00,
2013-11-15 03:35:00,24.3,21.5,30.11,SSW,199,0.0,0.0,89,0.00,,,0.00,Wunderground v.1.15,2013-11-15 08:35:00,
2013-11-15 03:40:00,24.1,21.3,30.11,SSW,199,0.0,0.0,89,0.00,,,0.00,Wunderground v.1.15,2013-11-15 08:40:00,
2013-11-15 03:45:00,23.9,21.4,30.12,SSW,199,0.0,0.0,90,0.00,,,0.00,Wunderground v.1.15,2013-11-15 08:45:00,
2013-11-15 03:50:00,23.8,21.0,30.12,SSW,199,0.0,0.0,89,0.00,,,0.00,Wunderground v.1.15,2013-11-15 08:50:00,
2013-11-15 04:00:00,23.4,20.9,30.12,SSW,199,0.0,0.0,90,0.00,,,0.00,Wunderground v.1.15,2013-11-15 09:00:00,
2013-11-15 04:05:00,23.4,20.9,30.12,SSW,199,0.0,0.0,90,0.00,,,0.00,Wunderground v.1.15,2013-11-15 09:05:00,
2013-11-15 04:10:00,23.1,20.6,30.12,SSW,199,0.0,0.0,90,0.00,,,0.00,Wunderground v.1.15,2013-11-15 09:10:00,
2013-11-15 04:15:00,23.1,20.6,30.12,SSW,199,0.0,0.0,90,0.00,,,0.00,Wunderground v.1.15,2013-11-15 09:15:00,
2013-11-15 04:20:00,22.9,20.4,30.13,SSW,199,0.0,0.0,90,0.00,,,0.00,Wunderground v.1.15,2013-11-15 09:20:00,
2013-11-15 04:25:00,23.0,22.5,30.13,SSW,199,0.0,0.0,98,0.00,,,0.00,Wunderground v.1.15,2013-11-15 09:25:00,
2013-11-15 04:30:00,23.1,20.6,30.12,SSW,199,0.0,0.0,90,0.00,,,0.00,Wunderground v.1.15,2013-11-15 09:30:00,
2013-11-15 04:35:00,23.1,20.6,30.12,SSW,199,0.0,0.0,90,0.00,,,0.00,Wunderground v.1.15,2013-11-15 09:35:00,
2013-11-15 04:40:00,23.0,20.5,30.12,SSW,199,0.0,0.0,90,0.00,,,0.00,Wunderground v.1.15,2013-11-15 09:40:00,
2013-11-15 04:45:00,23.0,20.5,30.12,SSW,199,0.0,0.0,90,0.00,,,0.00,Wunderground v.1.15,2013-11-15 09:45:00,
2013-11-15 04:50:00,23.0,20.5,30.13,SSW,199,0.0,0.0,90,0.00,,,0.00,Wunderground v.1.15,2013-11-15 09:50:00,
2013-11-15 04:55:00,23.1,20.6,30.13,SSW,199,0.0,0.0,90,0.00,,,0.00,Wunderground v.1.15,2013-11-15 09:55:00,
2013-11-15 05:00:00,23.2,20.7,30.13,SSW,199,0.0,0.0,90,0.00,,,0.00,Wunderground v.1.15,2013-11-15 10:00:00,
2013-11-15 05:05:00,23.2,20.7,30.13,SSW,199,0.0,0.0,90,0.00,,,0.00,Wunderground v.1.15,2013-11-15 10:05:00,
2013-11-15 05:10:00,23.2,20.7,30.13,SSW,199,0.0,0.0,90,0.00,,,0.00,Wunderground v.1.15,2013-11-15 10:10:00,
2013-11-15 05:15:00,23.2,20.7,30.13,SSW,199,0.0,0.0,90,0.00,,,0.00,Wunderground v.1.15,2013-11-15 10:15:00,
2013-11-15 05:20:00,23.2,20.7,30.13,SSW,199,0.0,0.0,90,0.00,,,0.00,Wunderground v.1.15,2013-11-15 10:20:00,
2013-11-15 05:25:00,23.3,20.8,30.13,SSW,199,0.0,0.0,90,0.00,,,0.00,Wunderground v.1.15,2013-11-15 10:25:00,
2013-11-15 05:30:00,23.4,20.9,30.13,SSW,199,0.0,0.0,90,0.00,,,0.00,Wunderground v.1.15,2013-11-15 10:30:00,
2013-11-15 05:40:00,23.3,20.8,30.13,SSW,199,0.0,0.0,90,0.00,,,0.00,Wunderground v.1.15,2013-11-15 10:40:00,
2013-11-15 05:45:00,23.4,20.9,30.13,SSW,199,0.0,0.0,90,0.00,,,0.00,Wunderground v.1.15,2013-11-15 10:45:00,
2013-11-15 05:50:00,23.5,21.0,30.13,SSW,199,0.0,0.0,90,0.00,,,0.00,Wunderground v.1.15,2013-11-15 10:50:00,
2013-11-15 05:55:00,23.4,20.9,30.13,SSW,199,0.0,0.0,90,0.00,,,0.00,Wunderground v.1.15,2013-11-15 10:55:00,
2013-11-15 06:05:00,23.2,20.7,30.14,SSW,199,0.0,0.0,90,0.00,,,0.00,Wunderground v.1.15,2013-11-15 11:05:00,
2013-11-15 06:10:00,23.2,20.7,30.14,SSW,199,0.0,0.0,90,0.00,,,0.00,Wunderground v.1.15,2013-11-15 11:10:00,
2013-11-15 06:16:00,23.3,20.8,30.14,SSW,199,0.0,0.0,90,0.00,,,0.00,Wunderground v.1.15,2013-11-15 11:16:00,
2013-11-15 06:20:00,23.3,20.8,30.14,SSW,199,0.0,0.0,90,0.00,,,0.00,Wunderground v.1.15,2013-11-15 11:20:00,
2013-11-15 06:25:00,23.1,20.3,30.14,SSW,199,0.0,0.0,89,0.00,,,0.00,Wunderground v.1.15,2013-11-15 11:25:00,
2013-11-15 06:30:00,23.0,20.5,30.14,SSW,199,0.0,0.0,90,0.00,,,0.00,Wunderground v.1.15,2013-11-15 11:30:00,
2013-11-15 06:36:00,23.0,20.2,30.15,SSW,199,0.0,0.0,89,0.00,,,0.00,Wunderground v.1.15,2013-11-15 11:36:00,
2013-11-15 06:40:00,22.8,20.0,30.14,SSW,199,0.0,0.0,89,0.00,,,0.00,Wunderground v.1.15,2013-11-15 11:40:00,
2013-11-15 06:50:00,22.7,19.9,30.15,SSW,199,0.0,0.0,89,0.00,,,0.00,Wunderground v.1.15,2013-11-15 11:50:00,
2013-11-15 06:55:00,22.6,19.8,30.15,SSW,199,0.0,0.0,89,0.00,,,0.00,Wunderground v.1.15,2013-11-15 11:55:00,
2013-11-15 07:00:00,22.5,19.7,30.15,SSW,199,0.0,0.0,89,0.00,,,0.00,Wunderground v.1.15,2013-11-15 12:00:00,
2013-11-15 07:05:00,22.6,19.8,30.16,SSW,199,0.0,0.0,89,0.00,,,0.00,Wunderground v.1.15,2013-11-15 12:05:00,
2013-11-15 07:10:00,22.4,19.6,30.16,SSW,199,0.0,0.0,89,0.00,,,0.00,Wunderground v.1.15,2013-11-15 12:10:00,
2013-11-15 07:20:00,22.2,19.7,30.16,SSW,199,0.0,0.0,90,0.00,,,0.00,Wunderground v.1.15,2013-11-15 12:20:00,
2013-11-15 07:25:00,22.1,19.6,30.16,SSW,199,0.0,0.0,90,0.00,,,0.00,Wunderground v.1.15,2013-11-15 12:25:00,
2013-11-15 07:30:00,22.2,19.7,30.16,SSW,199,0.0,0.0,90,0.00,,,0.00,Wunderground v.1.15,2013-11-15 12:30:00,
2013-11-15 07:35:00,22.3,19.8,30.16,SSW,199,0.0,0.0,90,0.00,,,0.00,Wunderground v.1.15,2013-11-15 12:35:00,
2013-11-15 07:41:00,22.5,20.0,30.16,SSW,199,0.0,0.0,90,0.00,,,0.00,Wunderground v.1.15,2013-11-15 12:41:00,
2013-11-15 07:46:00,22.8,20.6,30.16,SSW,199,0.0,0.0,91,0.00,,,0.00,Wunderground v.1.15,2013-11-15 12:46:00,
2013-11-15 07:55:00,23.7,21.5,30.16,SSW,199,0.0,0.0,91,0.00,,,0.00,Wunderground v.1.15,2013-11-15 12:55:00,
2013-11-15 08:00:00,24.3,22.3,30.16,SSW,199,0.0,0.0,92,0.00,,,0.00,Wunderground v.1.15,2013-11-15 13:00:00,
2013-11-15 08:05:00,24.8,22.5,30.16,SSW,199,0.0,0.0,91,0.00,,,0.00,Wunderground v.1.15,2013-11-15 13:05:00,
2013-11-15 08:10:00,24.9,22.6,30.16,SSW,199,0.0,0.0,91,0.00,,,0.00,Wunderground v.1.15,2013-11-15 13:10:00,
2013-11-15 08:25:00,25.7,23.4,30.16,SSW,199,0.0,0.0,91,0.00,,,0.00,Wunderground v.1.15,2013-11-15 13:25:00,
2013-11-15 08:31:00,26.9,25.1,30.16,SSW,199,0.0,0.0,93,0.00,,,0.00,Wunderground v.1.15,2013-11-15 13:31:00,
2013-11-15 08:45:00,30.1,27.8,30.16,SSW,199,0.0,0.0,91,0.00,,,0.00,Wunderground v.1.15,2013-11-15 13:45:00,
2013-11-15 08:50:00,30.9,28.0,30.16,SSW,199,0.0,0.0,89,0.00,,,0.00,Wunderground v.1.15,2013-11-15 13:50:00,
2013-11-15 08:55:00,31.2,27.5,30.16,SSW,199,0.0,0.0,86,0.00,,,0.00,Wunderground v.1.15,2013-11-15 13:55:00,
2013-11-15 09:01:00,31.2,27.5,30.16,SSW,199,0.0,0.0,86,0.00,,,0.00,Wunderground v.1.15,2013-11-15 14:01:00,
2013-11-15 09:10:00,30.8,27.4,30.16,SSW,199,0.0,0.0,87,0.00,,,0.00,Wunderground v.1.15,2013-11-15 14:10:00,
2013-11-15 09:16:00,30.5,27.1,30.16,SSE,153,0.0,4.0,87,0.00,,,0.00,Wunderground v.1.15,2013-11-15 14:16:00,
2013-11-15 09:21:00,30.3,26.9,30.16,SSE,153,1.0,1.0,87,0.00,,,0.00,Wunderground v.1.15,2013-11-15 14:21:00,
2013-11-15 09:26:00,30.7,27.6,30.16,SSE,153,0.0,1.0,88,0.00,,,0.00,Wunderground v.1.15,2013-11-15 14:26:00,
2013-11-15 09:31:00,31.1,27.7,30.16,SSE,153,0.0,0.0,87,0.00,,,0.00,Wunderground v.1.15,2013-11-15 14:31:00,
2013-11-15 09:35:00,31.6,28.2,30.16,SSE,153,0.0,0.0,87,0.00,,,0.00,Wunderground v.1.15,2013-11-15 14:35:00,
2013-11-15 09:40:00,32.4,28.7,30.16,SSE,153,0.0,0.0,86,0.00,,,0.00,Wunderground v.1.15,2013-11-15 14:40:00,
2013-11-15 09:50:00,34.1,28.9,30.17,SSE,153,0.0,0.0,81,0.00,,,0.00,Wunderground v.1.15,2013-11-15 14:50:00,
2013-11-15 09:55:00,34.7,29.2,30.16,SSE,153,0.0,0.0,80,0.00,,,0.00,Wunderground v.1.15,2013-11-15 14:55:00,
2013-11-15 10:00:00,35.4,29.2,30.16,SSE,153,0.0,1.0,78,0.00,,,0.00,Wunderground v.1.15,2013-11-15 15:00:00,
2013-11-15 10:05:00,35.7,29.2,30.16,SSE,153,0.0,1.0,77,0.00,,,0.00,Wunderground v.1.15,2013-11-15 15:05:00,
2013-11-15 10:11:00,35.5,29.3,30.15,SSE,150,1.0,1.0,78,0.00,,,0.00,Wunderground v.1.15,2013-11-15 15:11:00,
2013-11-15 10:15:00,35.3,29.4,30.16,SSE,150,1.0,1.0,79,0.00,,,0.00,Wunderground v.1.15,2013-11-15 15:15:00,
2013-11-15 10:20:00,35.2,29.3,30.16,SSE,150,1.0,1.0,79,0.00,,,0.00,Wunderground v.1.15,2013-11-15 15:20:00,
2013-11-15 10:25:00,35.1,29.2,30.16,SSE,150,1.0,1.0,79,0.00,,,0.00,Wunderground v.1.15,2013-11-15 15:25:00,
2013-11-15 10:30:00,35.2,29.6,30.16,SSE,150,1.0,1.0,80,0.00,,,0.00,Wunderground v.1.15,2013-11-15 15:30:00,
2013-11-15 10:35:00,35.6,29.4,30.15,North,355,0.0,1.0,78,0.00,,,0.00,Wunderground v.1.15,2013-11-15 15:35:00,
2013-11-15 10:40:00,36.2,29.4,30.16,North,355,0.0,0.0,76,0.00,,,0.00,Wunderground v.1.15,2013-11-15 15:40:00,
2013-11-15 10:45:00,36.9,29.1,30.16,North,355,0.0,0.0,73,0.00,,,0.00,Wunderground v.1.15,2013-11-15 15:45:00,
2013-11-15 10:51:00,37.5,29.6,30.15,North,355,0.0,0.0,73,0.00,,,0.00,Wunderground v.1.15,2013-11-15 15:51:00,
2013-11-15 10:55:00,37.8,29.6,30.15,North,355,0.0,0.0,72,0.00,,,0.00,Wunderground v.1.15,2013-11-15 15:55:00,
2013-11-15 11:00:00,38.3,29.7,30.15,North,355,0.0,0.0,71,0.00,,,0.00,Wunderground v.1.15,2013-11-15 16:00:00,
2013-11-15 11:05:00,39.2,29.9,30.15,North,355,0.0,0.0,69,0.00,,,0.00,Wunderground v.1.15,2013-11-15 16:05:00,
2013-11-15 11:15:00,40.2,30.8,30.14,North,355,0.0,0.0,69,0.00,,,0.00,Wunderground v.1.15,2013-11-15 16:15:00,
2013-11-15 11:20:00,40.3,29.8,30.14,North,355,0.0,1.0,66,0.00,,,0.00,Wunderground v.1.15,2013-11-15 16:20:00,
2013-11-15 11:31:00,41.3,30.4,30.14,SSE,162,0.0,2.0,65,0.00,,,0.00,Wunderground v.1.15,2013-11-15 16:31:00,
2013-11-15 11:35:00,41.5,31.4,30.14,ENE,71,1.0,2.0,67,0.00,,,0.00,Wunderground v.1.15,2013-11-15 16:35:00,
2013-11-15 11:40:00,41.8,31.3,30.14,ENE,71,1.0,1.0,66,0.00,,,0.00,Wunderground v.1.15,2013-11-15 16:40:00,
2013-11-15 11:45:00,42.3,30.6,30.14,ESE,111,0.0,2.0,63,0.00,,,0.00,Wunderground v.1.15,2013-11-15 16:45:00,
2013-11-15 11:50:00,42.3,30.2,30.14,ESE,111,1.0,1.0,62,0.00,,,0.00,Wunderground v.1.15,2013-11-15 16:50:00,
2013-11-15 11:55:00,42.4,29.9,30.14,ESE,111,1.0,2.0,61,0.00,,,0.00,Wunderground v.1.15,2013-11-15 16:55:00,
2013-11-15 12:00:00,42.7,31.0,30.13,ESE,111,1.0,2.0,63,0.00,,,0.00,Wunderground v.1.15,2013-11-15 17:00:00,
2013-11-15 12:05:00,43.0,30.1,30.13,ESE,111,1.0,2.0,60,0.00,,,0.00,Wunderground v.1.15,2013-11-15 17:05:00,
2013-11-15 12:16:00,44.1,28.0,30.13,East,100,2.0,2.0,53,0.00,,,0.00,Wunderground v.1.15,2013-11-15 17:16:00,
2013-11-15 12:25:00,44.9,28.3,30.13,SE,127,2.0,2.0,52,0.00,,,0.00,Wunderground v.1.15,2013-11-15 17:25:00,
2013-11-15 12:30:00,44.9,28.8,30.12,ENE,78,2.0,2.0,53,0.00,,,0.00,Wunderground v.1.15,2013-11-15 17:30:00,
2013-11-15 12:41:00,45.6,29.0,30.12,ENE,78,1.0,1.0,52,0.00,,,0.00,Wunderground v.1.15,2013-11-15 17:41:00,
2013-11-15 12:50:00,45.8,27.7,30.12,ESE,102,2.0,3.0,49,0.00,,,0.00,Wunderground v.1.15,2013-11-15 17:50:00,
2013-11-15 12:55:00,45.9,29.2,30.12,East,86,2.0,5.0,52,0.00,,,0.00,Wunderground v.1.15,2013-11-15 17:55:00,
2013-11-15 13:00:00,46.0,26.9,30.11,SE,128,3.0,3.0,47,0.00,,,0.00,Wunderground v.1.15,2013-11-15 18:00:00,
2013-11-15 13:05:00,46.1,29.0,30.11,ENE,65,3.0,3.0,51,0.00,,,0.00,Wunderground v.1.15,2013-11-15 18:05:00,
2013-11-15 13:10:00,46.8,27.6,30.11,SSE,165,2.0,3.0,47,0.00,,,0.00,Wunderground v.1.15,2013-11-15 18:10:00,
2013-11-15 13:20:00,46.0,26.4,30.11,SE,138,5.0,5.0,46,0.00,,,0.00,Wunderground v.1.15,2013-11-15 18:20:00,
2013-11-15 13:26:00,45.9,26.8,30.12,South,180,5.0,6.0,47,0.00,,,0.00,Wunderground v.1.15,2013-11-15 18:26:00,
2013-11-15 13:30:00,45.9,26.8,30.12,SSE,166,4.0,5.0,47,0.00,,,0.00,Wunderground v.1.15,2013-11-15 18:30:00,
2013-11-15 13:35:00,45.8,26.7,30.11,SSE,160,6.0,8.0,47,0.00,,,0.00,Wunderground v.1.15,2013-11-15 18:35:00,
2013-11-15 13:45:00,45.8,26.7,30.11,SSE,155,7.0,7.0,47,0.00,,,0.00,Wunderground v.1.15,2013-11-15 18:45:00,
2013-11-15 13:50:00,46.0,27.4,30.11,South,171,6.0,6.0,48,0.00,,,0.00,Wunderground v.1.15,2013-11-15 18:50:00,
2013-11-15 13:55:00,46.2,27.6,30.11,SE,130,5.0,6.0,48,0.00,,,0.00,Wunderground v.1.15,2013-11-15 18:55:00,
2013-11-15 14:00:00,46.5,26.8,30.11,SSE,159,5.0,5.0,46,0.00,,,0.00,Wunderground v.1.15,2013-11-15 19:00:00,
2013-11-15 14:05:00,46.4,26.7,30.10,SSE,154,4.0,8.0,46,0.00,,,0.00,Wunderground v.1.15,2013-11-15 19:05:00,
2013-11-15 14:15:00,46.5,26.8,30.11,SSE,153,5.0,5.0,46,0.00,,,0.00,Wunderground v.1.15,2013-11-15 19:15:00,
2013-11-15 14:21:00,46.4,26.2,30.10,SE,136,4.0,4.0,45,0.00,,,0.00,Wunderground v.1.15,2013-11-15 19:21:00,
2013-11-15 14:25:00,46.4,26.7,30.10,SSE,165,5.0,5.0,46,0.00,,,0.00,Wunderground v.1.15,2013-11-15 19:25:00,
2013-11-15 14:30:00,46.4,26.2,30.10,SSE,156,4.0,4.0,45,0.00,,,0.00,Wunderground v.1.15,2013-11-15 19:30:00,
2013-11-15 14:40:00,46.2,27.6,30.11,South,169,4.0,4.0,48,0.00,,,0.00,Wunderground v.1.15,2013-11-15 19:40:00,
2013-11-15 14:45:00,46.1,25.9,30.10,SSE,161,4.0,5.0,45,0.00,,,0.00,Wunderground v.1.15,2013-11-15 19:45:00,
2013-11-15 14:55:00,45.8,26.2,30.11,SSE,153,4.0,4.0,46,0.00,,,0.00,Wunderground v.1.15,2013-11-15 19:55:00,
2013-11-15 15:00:00,45.9,25.7,30.11,SSE,154,3.0,3.0,45,0.00,,,0.00,Wunderground v.1.15,2013-11-15 20:00:00,
2013-11-15 15:05:00,45.9,25.7,30.11,SSE,157,3.0,4.0,45,0.00,,,0.00,Wunderground v.1.15,2013-11-15 20:05:00,
2013-11-15 15:10:00,45.7,26.1,30.11,SSW,192,3.0,3.0,46,0.00,,,0.00,Wunderground v.1.15,2013-11-15 20:10:00,
2013-11-15 15:20:00,45.8,25.6,30.12,SSW,202,2.0,2.0,45,0.00,,,0.00,Wunderground v.1.15,2013-11-15 20:20:00,
2013-11-15 15:25:00,45.6,24.9,30.12,SSE,166,2.0,2.0,44,0.00,,,0.00,Wunderground v.1.15,2013-11-15 20:25:00,
2013-11-15 15:31:00,44.7,27.2,30.12,SSE,166,1.0,1.0,50,0.00,,,0.00,Wunderground v.1.15,2013-11-15 20:31:00,
2013-11-15 15:40:00,43.0,28.4,30.12,SSE,166,0.0,0.0,56,0.00,,,0.00,Wunderground v.1.15,2013-11-15 20:40:00,
2013-11-15 15:45:00,42.1,27.5,30.13,SSE,166,0.0,0.0,56,0.00,,,0.00,Wunderground v.1.15,2013-11-15 20:45:00,
2013-11-15 15:50:00,41.1,27.9,30.13,SSE,166,0.0,0.0,59,0.00,,,0.00,Wunderground v.1.15,2013-11-15 20:50:00,
2013-11-15 16:01:00,38.7,27.9,30.13,SSE,166,0.0,0.0,65,0.00,,,0.00,Wunderground v.1.15,2013-11-15 21:01:00,
2013-11-15 16:05:00,37.9,27.5,30.13,SSE,166,0.0,0.0,66,0.00,,,0.00,Wunderground v.1.15,2013-11-15 21:05:00,
2013-11-15 16:10:00,37.0,27.4,30.13,SSE,166,0.0,0.0,68,0.00,,,0.00,Wunderground v.1.15,2013-11-15 21:10:00,
2013-11-15 16:16:00,36.1,27.3,30.13,SSE,166,0.0,0.0,70,0.00,,,0.00,Wunderground v.1.15,2013-11-15 21:16:00,
2013-11-15 16:20:00,35.1,27.0,30.13,SSE,166,0.0,0.0,72,0.00,,,0.00,Wunderground v.1.15,2013-11-15 21:20:00,
2013-11-15 16:30:00,33.3,26.2,30.13,SSE,166,0.0,0.0,75,0.00,,,0.00,Wunderground v.1.15,2013-11-15 21:30:00,
2013-11-15 16:35:00,32.6,26.2,30.13,SSE,166,0.0,0.0,77,0.00,,,0.00,Wunderground v.1.15,2013-11-15 21:35:00,
2013-11-15 16:40:00,32.2,26.1,30.13,SSE,166,0.0,0.0,78,0.00,,,0.00,Wunderground v.1.15,2013-11-15 21:40:00,
2013-11-15 16:45:00,31.6,25.8,30.14,SSE,166,0.0,0.0,79,0.00,,,0.00,Wunderground v.1.15,2013-11-15 21:45:00,
2013-11-15 16:55:00,31.0,25.9,30.13,SSE,166,0.0,2.0,81,0.00,,,0.00,Wunderground v.1.15,2013-11-15 21:55:00,
2013-11-15 17:00:00,30.5,25.4,30.13,SSE,166,0.0,0.0,81,0.00,,,0.00,Wunderground v.1.15,2013-11-15 22:00:00,
2013-11-15 17:05:00,30.0,25.5,30.13,SSE,166,0.0,0.0,83,0.00,,,0.00,Wunderground v.1.15,2013-11-15 22:05:00,
2013-11-15 17:10:00,29.8,25.3,30.13,SSE,166,0.0,0.0,83,0.00,,,0.00,Wunderground v.1.15,2013-11-15 22:10:00,
2013-11-15 17:15:00,29.6,25.4,30.14,SSE,166,0.0,0.0,84,0.00,,,0.00,Wunderground v.1.15,2013-11-15 22:15:00,
2013-11-15 17:20:00,29.2,24.7,30.14,SSE,166,0.0,0.0,83,0.00,,,0.00,Wunderground v.1.15,2013-11-15 22:20:00,
2013-11-15 17:25:00,29.2,24.7,30.14,SSE,166,0.0,0.0,83,0.00,,,0.00,Wunderground v.1.15,2013-11-15 22:25:00,
2013-11-15 17:35:00,29.0,25.1,30.15,SSE,166,0.0,0.0,85,0.00,,,0.00,Wunderground v.1.15,2013-11-15 22:35:00,
2013-11-15 17:40:00,28.9,25.0,30.15,SSE,166,0.0,0.0,85,0.00,,,0.00,Wunderground v.1.15,2013-11-15 22:40:00,
2013-11-15 17:45:00,28.9,25.0,30.15,SSE,166,0.0,0.0,85,0.00,,,0.00,Wunderground v.1.15,2013-11-15 22:45:00,
2013-11-15 17:51:00,28.9,25.0,30.15,SSE,166,0.0,1.0,85,0.00,,,0.00,Wunderground v.1.15,2013-11-15 22:51:00,
2013-11-15 18:00:00,28.9,25.2,30.15,SSE,166,0.0,0.0,86,0.00,,,0.00,Wunderground v.1.15,2013-11-15 23:00:00,
2013-11-15 18:06:00,28.9,25.2,30.16,SSE,166,0.0,0.0,86,0.00,,,0.00,Wunderground v.1.15,2013-11-15 23:06:00,
2013-11-15 18:10:00,28.8,25.1,30.16,SSE,166,0.0,0.0,86,0.00,,,0.00,Wunderground v.1.15,2013-11-15 23:10:00,
2013-11-15 18:20:00,28.8,25.4,30.16,SSE,166,0.0,1.0,87,0.00,,,0.00,Wunderground v.1.15,2013-11-15 23:20:00,
2013-11-15 18:26:00,28.7,25.0,30.16,SSE,166,1.0,1.0,86,0.00,,,0.00,Wunderground v.1.15,2013-11-15 23:26:00,
2013-11-15 18:30:00,28.8,25.1,30.16,SSE,166,0.0,0.0,86,0.00,,,0.00,Wunderground v.1.15,2013-11-15 23:30:00,
2013-11-15 18:35:00,28.8,25.4,30.16,SSE,166,0.0,0.0,87,0.00,,,0.00,Wunderground v.1.15,2013-11-15 23:35:00,
2013-11-15 18:40:00,28.9,25.5,30.16,SSE,166,0.0,0.0,87,0.00,,,0.00,Wunderground v.1.15,2013-11-15 23:40:00,
2013-11-15 18:46:00,28.9,25.2,30.16,SSE,166,0.0,0.0,86,0.00,,,0.00,Wunderground v.1.15,2013-11-15 23:46:00,
2013-11-15 18:50:00,29.0,25.3,30.16,SSE,166,0.0,0.0,86,0.00,,,0.00,Wunderground v.1.15,2013-11-15 23:50:00,
2013-11-15 19:00:00,29.2,25.8,30.16,SSE,166,0.0,0.0,87,0.00,,,0.00,Wunderground v.1.15,2013-11-16 00:00:00,
2013-11-15 19:06:00,29.4,26.0,30.16,SSE,166,0.0,0.0,87,0.00,,,0.00,Wunderground v.1.15,2013-11-16 00:06:00,
2013-11-15 19:11:00,29.5,25.8,30.16,SSE,166,0.0,0.0,86,0.00,,,0.00,Wunderground v.1.15,2013-11-16 00:11:00,
2013-11-15 19:25:00,29.8,25.8,30.17,SSE,166,0.0,0.0,85,0.00,,,0.00,Wunderground v.1.15,2013-11-16 00:25:00,
2013-11-15 19:30:00,29.8,25.8,30.17,SSE,166,0.0,0.0,85,0.00,,,0.00,Wunderground v.1.15,2013-11-16 00:30:00,
2013-11-15 19:35:00,29.8,25.8,30.17,SSE,166,0.0,0.0,85,0.00,,,0.00,Wunderground v.1.15,2013-11-16 00:35:00,
2013-11-15 19:40:00,29.6,25.6,30.17,SSE,166,0.0,0.0,85,0.00,,,0.00,Wunderground v.1.15,2013-11-16 00:40:00,
2013-11-15 19:45:00,29.5,25.5,30.18,SSE,166,0.0,0.0,85,0.00,,,0.00,Wunderground v.1.15,2013-11-16 00:45:00,
2013-11-15 19:50:00,29.3,25.6,30.17,SSE,166,0.0,2.0,86,0.00,,,0.00,Wunderground v.1.15,2013-11-16 00:50:00,
2013-11-15 20:00:00,28.8,25.1,30.18,SSE,166,1.0,1.0,86,0.00,,,0.00,Wunderground v.1.15,2013-11-16 01:00:00,
2013-11-15 20:05:00,28.6,25.2,30.18,SSE,166,0.0,1.0,87,0.00,,,0.00,Wunderground v.1.15,2013-11-16 01:05:00,
2013-11-15 20:11:00,28.5,25.1,30.18,SSE,166,0.0,0.0,87,0.00,,,0.00,Wunderground v.1.15,2013-11-16 01:11:00,
2013-11-15 20:15:00,28.4,24.7,30.18,SSE,166,0.0,0.0,86,0.00,,,0.00,Wunderground v.1.15,2013-11-16 01:15:00,
2013-11-15 20:20:00,28.4,25.0,30.18,SSE,166,0.0,0.0,87,0.00,,,0.00,Wunderground v.1.15,2013-11-16 01:20:00,
2013-11-15 20:25:00,28.4,25.0,30.18,SSE,166,0.0,0.0,87,0.00,,,0.00,Wunderground v.1.15,2013-11-16 01:25:00,
2013-11-15 20:30:00,28.5,25.4,30.18,SSE,166,0.0,0.0,88,0.00,,,0.00,Wunderground v.1.15,2013-11-16 01:30:00,
2013-11-15 20:35:00,28.5,25.1,30.18,SSE,166,0.0,0.0,87,0.00,,,0.00,Wunderground v.1.15,2013-11-16 01:35:00,
2013-11-15 20:40:00,28.5,25.4,30.18,SSE,166,0.0,1.0,88,0.00,,,0.00,Wunderground v.1.15,2013-11-16 01:40:00,
2013-11-15 20:45:00,28.5,25.1,30.18,SSE,166,0.0,1.0,87,0.00,,,0.00,Wunderground v.1.15,2013-11-16 01:45:00,
2013-11-15 20:50:00,28.5,25.1,30.18,SSE,166,0.0,0.0,87,0.00,,,0.00,Wunderground v.1.15,2013-11-16 01:50:00,
2013-11-15 20:55:00,28.5,25.1,30.19,SSE,166,0.0,0.0,87,0.00,,,0.00,Wunderground v.1.15,2013-11-16 01:55:00,
2013-11-15 21:01:00,28.5,25.4,30.19,SSE,166,0.0,0.0,88,0.00,,,0.00,Wunderground v.1.15,2013-11-16 02:01:00,
2013-11-15 21:05:00,28.5,25.4,30.18,SSE,166,0.0,0.0,88,0.00,,,0.00,Wunderground v.1.15,2013-11-16 02:05:00,
2013-11-15 21:10:00,28.5,25.4,30.19,SSE,166,0.0,3.0,88,0.00,,,0.00,Wunderground v.1.15,2013-11-16 02:10:00,
2013-11-15 21:15:00,28.5,25.4,30.19,SSE,166,1.0,3.0,88,0.00,,,0.00,Wunderground v.1.15,2013-11-16 02:15:00,
2013-11-15 21:20:00,28.4,25.3,30.18,SSE,166,1.0,2.0,88,0.00,,,0.00,Wunderground v.1.15,2013-11-16 02:20:00,
2013-11-15 21:25:00,28.4,25.3,30.20,SSE,166,1.0,2.0,88,0.00,,,0.00,Wunderground v.1.15,2013-11-16 02:25:00,
2013-11-15 21:31:00,28.3,25.2,30.18,SSE,166,1.0,1.0,88,0.00,,,0.00,Wunderground v.1.15,2013-11-16 02:31:00,
2013-11-15 21:35:00,28.4,25.3,30.19,SSE,166,1.0,1.0,88,0.00,,,0.00,Wunderground v.1.15,2013-11-16 02:35:00,
2013-11-15 21:45:00,28.5,25.4,30.18,SSE,166,0.0,0.0,88,0.00,,,0.00,Wunderground v.1.15,2013-11-16 02:45:00,
2013-11-15 21:50:00,28.5,25.4,30.19,SSE,166,0.0,1.0,88,0.00,,,0.00,Wunderground v.1.15,2013-11-16 02:50:00,
2013-11-15 21:55:00,28.6,25.5,30.19,SSE,166,1.0,1.0,88,0.00,,,0.00,Wunderground v.1.15,2013-11-16 02:55:00,
2013-11-15 22:00:00,28.5,25.4,30.20,SSE,166,0.0,0.0,88,0.00,,,0.00,Wunderground v.1.15,2013-11-16 03:00:00,
2013-11-15 22:05:00,28.4,25.3,30.19,SSE,166,0.0,0.0,88,0.00,,,0.00,Wunderground v.1.15,2013-11-16 03:05:00,
2013-11-15 22:10:00,28.5,25.4,30.20,SSE,166,1.0,1.0,88,0.00,,,0.00,Wunderground v.1.15,2013-11-16 03:10:00,
2013-11-15 22:20:00,28.5,25.7,30.20,SSE,166,0.0,0.0,89,0.00,,,0.00,Wunderground v.1.15,2013-11-16 03:20:00,
2013-11-15 22:26:00,28.5,25.7,30.20,SSE,166,0.0,0.0,89,0.00,,,0.00,Wunderground v.1.15,2013-11-16 03:26:00,
2013-11-15 22:30:00,28.5,25.7,30.21,SSE,166,0.0,0.0,89,0.00,,,0.00,Wunderground v.1.15,2013-11-16 03:30:00,
2013-11-15 22:35:00,28.5,25.7,30.21,SSE,166,0.0,0.0,89,0.00,,,0.00,Wunderground v.1.15,2013-11-16 03:35:00,
2013-11-15 22:40:00,28.5,25.7,30.21,SSE,166,0.0,0.0,89,0.00,,,0.00,Wunderground v.1.15,2013-11-16 03:40:00,
2013-11-15 22:45:00,28.5,25.4,30.21,SSE,166,0.0,0.0,88,0.00,,,0.00,Wunderground v.1.15,2013-11-16 03:45:00,
2013-11-15 22:50:00,28.5,25.4,30.21,SSE,166,0.0,0.0,88,0.00,,,0.00,Wunderground v.1.15,2013-11-16 03:50:00,
2013-11-15 22:55:00,28.5,25.4,30.22,SSE,166,0.0,0.0,88,0.00,,,0.00,Wunderground v.1.15,2013-11-16 03:55:00,
2013-11-15 23:00:00,28.5,25.4,30.22,SSE,166,0.0,0.0,88,0.00,,,0.00,Wunderground v.1.15,2013-11-16 04:00:00,
2013-11-15 23:05:00,28.6,25.5,30.22,SSE,166,0.0,0.0,88,0.00,,,0.00,Wunderground v.1.15,2013-11-16 04:05:00,
2013-11-15 23:10:00,28.8,25.7,30.22,SSE,166,0.0,0.0,88,0.00,,,0.00,Wunderground v.1.15,2013-11-16 04:10:00,
2013-11-15 23:15:00,28.8,25.4,30.22,SSE,166,0.0,0.0,87,0.00,,,0.00,Wunderground v.1.15,2013-11-16 04:15:00,
2013-11-15 23:20:00,28.9,25.8,30.22,SSE,166,0.0,0.0,88,0.00,,,0.00,Wunderground v.1.15,2013-11-16 04:20:00,
2013-11-15 23:25:00,29.1,26.0,30.22,SSE,166,0.0,0.0,88,0.00,,,0.00,Wunderground v.1.15,2013-11-16 04:25:00,
2013-11-15 23:30:00,29.2,25.8,30.22,SSE,166,0.0,0.0,87,0.00,,,0.00,Wunderground v.1.15,2013-11-16 04:30:00,
2013-11-15 23:35:00,29.2,25.8,30.23,SSE,166,0.0,0.0,87,0.00,,,0.00,Wunderground v.1.15,2013-11-16 04:35:00,
2013-11-15 23:40:00,29.2,25.8,30.23,SSE,166,0.0,0.0,87,0.00,,,0.00,Wunderground v.1.15,2013-11-16 04:40:00,
2013-11-15 23:45:00,29.3,26.2,30.23,SSE,166,0.0,0.0,88,0.00,,,0.00,Wunderground v.1.15,2013-11-16 04:45:00,
2013-11-15 23:50:00,29.2,25.8,30.23,SSE,166,0.0,0.0,87,0.00,,,0.00,Wunderground v.1.15,2013-11-16 04:50:00,
2013-11-15 23:55:00,29.2,26.1,30.23,SSE,166,0.0,0.0,88,0.00,,,0.00,Wunderground v.1.15,2013-11-16 04:55:00,